Time;durP1;ratioP1;P1;durP2;ratioP2;P2;SDS_P1;SDS_P2;PMS_P1;PMS_P2;Temp;Humidity;BMP_temperature;BMP_pressure;BME280_temperature;BME280_humidity;BME280_pressure;Samples;Min_cycle;Max_cycle;Signal;HPM_P1;HPM_P2
2022/12/30 00:02:22;;;;;;;18.40;3.85;;;;;;;5.49;100.00;100880.84;10380581;28;20665;-73
2022/12/30 00:07:23;;;;;;;6.63;4.13;;;;;;;5.48;100.00;100893.41;10379093;28;20038;-73
2022/12/30 00:33:50;;;;;;;6.93;3.78;;;;;;;5.39;100.00;100899.75;10378803;28;20034;-72
2022/12/30 00:38:54;;;;;;;21.30;4.80;;;;;;;5.46;100.00;100899.97;10362898;28;20129;-72
2022/12/30 00:43:57;;;;;;;15.75;3.67;;;;;;;5.42;100.00;100903.97;10361912;28;20081;-73
2022/12/30 00:59:36;;;;;;;12.77;4.07;;;;;;;5.29;100.00;100894.53;10377425;28;20034;-72
2022/12/30 01:04:40;;;;;;;9.07;3.55;;;;;;;5.30;100.00;100887.34;10377516;28;20045;-72
2022/12/30 01:09:40;;;;;;;18.38;4.43;;;;;;;5.32;100.00;100891.50;10376307;28;20037;-73
2022/12/30 01:14:45;;;;;;;17.35;4.28;;;;;;;5.33;100.00;100903.94;10376662;28;20058;-72
2022/12/30 01:19:46;;;;;;;20.17;3.10;;;;;;;5.28;100.00;100897.38;10377081;28;20030;-73
2022/12/30 01:24:47;;;;;;;13.13;2.47;;;;;;;5.41;100.00;100908.50;10377434;28;20474;-72
2022/12/30 01:29:47;;;;;;;17.55;4.90;;;;;;;5.48;100.00;100912.19;10376655;28;20033;-72
2022/12/30 01:34:48;;;;;;;9.65;3.38;;;;;;;5.42;100.00;100930.81;10376963;28;20030;-72
2022/12/30 01:39:48;;;;;;;5.22;3.28;;;;;;;5.38;100.00;100926.78;10375323;28;20037;-72
2022/12/30 01:44:48;;;;;;;12.43;3.47;;;;;;;5.31;100.00;100930.13;10376667;28;20073;-72
2022/12/30 01:49:53;;;;;;;14.83;3.03;;;;;;;5.17;100.00;100930.75;10391767;28;20488;-72
2022/12/30 01:54:56;;;;;;;3.17;2.40;;;;;;;5.09;100.00;100912.75;10376267;28;20417;-72
2022/12/30 01:59:56;;;;;;;18.27;5.25;;;;;;;5.08;100.00;100904.88;10375634;28;20084;-72
2022/12/30 02:04:57;;;;;;;7.82;3.50;;;;;;;5.01;100.00;100904.69;10375356;28;20093;-72
2022/12/30 02:09:57;;;;;;;15.10;3.75;;;;;;;5.03;100.00;100881.19;10375255;28;20041;-72
2022/12/30 02:14:57;;;;;;;11.57;4.22;;;;;;;4.99;100.00;100869.09;10358308;28;20042;-73
2022/12/30 02:20:39;;;;;;;10.38;3.90;;;;;;;4.97;100.00;100875.63;10373873;28;20088;-72
2022/12/30 02:26:01;;;;;;;11.95;3.92;;;;;;;5.08;100.00;100883.41;10368696;28;20066;-72
2022/12/30 02:31:11;;;;;;;22.40;6.03;;;;;;;5.11;100.00;100870.50;10375168;28;20385;-72
2022/12/30 02:36:14;;;;;;;16.63;4.35;;;;;;;5.20;100.00;100875.88;10374479;28;20045;-72
2022/12/30 02:47:26;;;;;;;16.85;4.72;;;;;;;5.26;100.00;100883.28;10373429;28;20042;-72
2022/12/30 02:52:27;;;;;;;4.45;3.22;;;;;;;5.20;100.00;100879.41;10380279;28;20033;-72
2022/12/30 02:57:29;;;;;;;16.33;3.65;;;;;;;5.12;100.00;100874.84;10381389;28;20034;-72
2022/12/30 03:08:15;;;;;;;18.73;4.97;;;;;;;5.04;100.00;100871.28;10368470;28;20498;-72
2022/12/30 03:13:24;;;;;;;13.95;3.33;;;;;;;5.01;100.00;100867.09;10382102;28;20113;-72
2022/12/30 03:18:24;;;;;;;8.63;3.38;;;;;;;5.00;100.00;100860.03;10380348;28;20074;-72
2022/12/30 03:28:46;;;;;;;4.75;2.90;;;;;;;4.97;100.00;100856.84;10367465;28;20132;-72
2022/12/30 03:33:46;;;;;;;9.32;3.00;;;;;;;4.94;100.00;100839.22;10380520;28;20421;-72
2022/12/30 03:38:57;;;;;;;12.52;4.68;;;;;;;4.95;100.00;100845.44;10380925;28;20083;-72
2022/12/30 03:43:57;;;;;;;3.95;2.85;;;;;;;4.87;100.00;100844.38;10379560;28;20052;-72
2022/12/30 03:48:58;;;;;;;20.27;6.38;;;;;;;4.88;100.00;100847.91;10380721;28;20040;-72
2022/12/30 03:53:58;;;;;;;3.40;2.35;;;;;;;4.86;100.00;100850.75;10379761;28;20034;-72
2022/12/30 03:58:58;;;;;;;10.65;3.53;;;;;;;4.89;100.00;100846.94;10381391;28;20080;-72
2022/12/30 04:03:59;;;;;;;7.03;3.50;;;;;;;4.85;100.00;100832.13;10380586;28;20498;-72
2022/12/30 04:08:59;;;;;;;4.88;3.00;;;;;;;4.85;100.00;100822.25;10379696;28;20037;-72
2022/12/30 04:14:00;;;;;;;15.43;3.60;;;;;;;4.80;100.00;100826.44;10380031;28;20100;-72
2022/12/30 04:19:00;;;;;;;12.05;4.05;;;;;;;4.85;100.00;100829.44;10380180;28;20374;-72
2022/12/30 04:24:01;;;;;;;6.03;2.58;;;;;;;4.73;100.00;100828.09;10378767;28;20041;-72
2022/12/30 04:29:01;;;;;;;6.28;3.70;;;;;;;4.73;100.00;100814.66;10379703;28;20037;-72
2022/12/30 04:34:02;;;;;;;15.98;3.60;;;;;;;4.73;100.00;100820.03;10379253;28;20033;-72
2022/12/30 04:39:03;;;;;;;12.65;3.88;;;;;;;4.70;100.00;100815.81;10377415;28;20062;-72
2022/12/30 04:44:04;;;;;;;7.13;3.67;;;;;;;4.69;100.00;100821.34;10380755;28;20111;-72
2022/12/30 04:49:05;;;;;;;18.85;4.65;;;;;;;4.77;100.00;100811.50;10377696;28;20050;-72
2022/12/30 04:54:05;;;;;;;15.02;4.45;;;;;;;4.79;100.00;100816.72;10378607;28;20117;-72
2022/12/30 04:59:06;;;;;;;9.30;4.93;;;;;;;4.79;100.00;100812.19;10378523;28;20037;-72
2022/12/30 05:04:06;;;;;;;23.88;6.07;;;;;;;4.80;100.00;100808.47;10378990;28;20074;-72
2022/12/30 05:09:07;;;;;;;20.45;4.93;;;;;;;4.81;100.00;100802.09;10378625;28;20040;-72
2022/12/30 05:14:07;;;;;;;10.15;3.53;;;;;;;4.83;100.00;100802.78;10375914;28;20478;-72
2022/12/30 05:19:08;;;;;;;5.53;3.72;;;;;;;4.78;100.00;100812.31;10378464;28;20038;-72
2022/12/30 05:29:42;;;;;;;14.98;4.70;;;;;;;4.67;100.00;100802.75;10342131;28;20076;-72
2022/12/30 05:34:42;;;;;;;18.95;4.70;;;;;;;4.61;100.00;100787.28;10376524;28;20457;-72
2022/12/30 05:39:43;;;;;;;22.13;5.72;;;;;;;4.59;100.00;100787.44;10377531;28;20038;-72
2022/12/30 05:44:43;;;;;;;5.13;4.47;;;;;;;4.50;100.00;100777.69;10376866;28;20069;-72
2022/12/30 05:49:44;;;;;;;21.13;3.13;;;;;;;4.50;100.00;100777.69;10376044;28;20431;-72
2022/12/30 05:54:44;;;;;;;17.65;4.47;;;;;;;4.51;100.00;100754.41;10376479;28;20141;-72
2022/12/30 05:59:45;;;;;;;17.08;5.40;;;;;;;4.35;100.00;100755.19;10375667;28;20140;-72
2022/12/30 06:04:45;;;;;;;25.83;6.60;;;;;;;4.31;100.00;100762.69;10376002;28;20108;-72
2022/12/30 06:09:46;;;;;;;17.85;5.20;;;;;;;4.32;100.00;100748.28;10374734;28;20045;-72
2022/12/30 06:14:46;;;;;;;16.92;4.22;;;;;;;4.31;100.00;100749.28;10375420;28;20053;-72
2022/12/30 06:19:46;;;;;;;19.08;5.93;;;;;;;4.30;100.00;100738.72;10376259;28;20116;-72
2022/12/30 06:24:47;;;;;;;15.80;4.65;;;;;;;4.28;100.00;100730.03;10374663;28;20037;-72
2022/12/30 06:29:48;;;;;;;12.35;4.50;;;;;;;4.34;100.00;100732.91;10375369;28;20026;-72
2022/12/30 06:34:50;;;;;;;31.88;8.20;;;;;;;4.32;100.00;100726.84;10376822;28;20044;-72
2022/12/30 06:39:50;;;;;;;17.65;5.97;;;;;;;4.33;100.00;100717.78;10358984;28;20065;-72
2022/12/30 06:44:51;;;;;;;16.92;5.50;;;;;;;4.34;100.00;100702.53;10374959;28;20458;-72
2022/12/30 06:49:51;;;;;;;10.43;3.90;;;;;;;4.35;100.00;100689.00;10375499;28;20044;-72
2022/12/30 06:54:52;;;;;;;12.57;3.95;;;;;;;4.33;100.00;100685.63;10373580;28;20069;-72
2022/12/30 06:59:52;;;;;;;20.30;6.05;;;;;;;4.36;100.00;100673.75;10324267;28;20053;-72
2022/12/30 07:04:52;;;;;;;22.48;6.30;;;;;;;4.30;100.00;100669.03;10372986;28;20069;-71
2022/12/30 07:09:53;;;;;;;20.17;5.93;;;;;;;4.26;100.00;100665.00;10374550;28;20045;-70
2022/12/30 07:14:53;;;;;;;12.75;6.03;;;;;;;4.18;100.00;100655.94;10375003;28;20054;-71
2022/12/30 07:19:54;;;;;;;11.48;4.57;;;;;;;4.13;100.00;100633.28;10373728;28;20038;-71
2022/12/30 07:24:55;;;;;;;17.33;5.65;;;;;;;4.09;100.00;100624.75;10374262;28;20113;-71
2022/12/30 07:29:55;;;;;;;22.08;6.55;;;;;;;4.04;100.00;100618.19;10373493;28;20034;-71
2022/12/30 07:34:55;;;;;;;17.90;5.82;;;;;;;4.09;100.00;100616.72;10372709;28;20034;-71
2022/12/30 07:39:56;;;;;;;15.40;6.10;;;;;;;4.17;100.00;100610.53;10364154;28;20045;-71
2022/12/30 07:44:56;;;;;;;18.50;6.25;;;;;;;4.29;100.00;100609.22;10381404;28;20407;-71
2022/12/30 07:49:57;;;;;;;22.23;7.60;;;;;;;4.45;100.00;100608.41;10381210;28;20034;-71
2022/12/30 07:54:57;;;;;;;8.25;6.55;;;;;;;4.56;100.00;100585.81;10381524;28;20045;-71
2022/12/30 07:59:58;;;;;;;8.90;6.80;;;;;;;4.59;100.00;100585.47;10380898;28;20540;-71
2022/12/30 08:04:58;;;;;;;16.70;6.50;;;;;;;4.58;100.00;100568.53;10378706;28;20060;-71
2022/12/30 08:09:59;;;;;;;8.60;6.05;;;;;;;4.61;100.00;100564.69;10379750;28;20045;-71
2022/12/30 08:14:59;;;;;;;22.60;8.27;;;;;;;4.65;100.00;100555.31;10379860;28;20050;-71
2022/12/30 08:20:00;;;;;;;15.30;8.57;;;;;;;4.79;100.00;100578.78;10379110;28;20472;-71
2022/12/30 08:25:00;;;;;;;8.55;7.32;;;;;;;4.90;100.00;100573.06;10379739;28;20041;-73
2022/12/30 08:30:01;;;;;;;17.55;8.57;;;;;;;4.98;100.00;100566.00;10378491;28;20034;-74
2022/12/30 08:35:02;;;;;;;19.02;7.22;;;;;;;5.03;100.00;100574.41;10362440;28;20141;-74
2022/12/30 08:40:03;;;;;;;8.20;4.95;;;;;;;5.14;100.00;100560.66;10361693;28;20030;-71
2022/12/30 08:45:04;;;;;;;6.78;6.03;;;;;;;5.22;100.00;100551.72;10379423;28;20569;-72
2022/12/30 08:50:05;;;;;;;19.02;8.13;;;;;;;5.32;100.00;100536.25;10377265;28;20085;-72
2022/12/30 08:55:06;;;;;;;9.48;6.78;;;;;;;5.32;100.00;100526.34;10379323;28;20046;-71
2022/12/30 09:00:07;;;;;;;20.55;6.53;;;;;;;5.34;100.00;100502.03;10377240;28;20034;-71
2022/12/30 09:05:08;;;;;;;11.07;7.47;;;;;;;5.42;100.00;100498.47;10376371;28;20038;-71
2022/12/30 09:10:11;;;;;;;14.90;5.53;;;;;;;5.47;100.00;100496.94;10377332;28;20057;-72
2022/12/30 09:15:12;;;;;;;9.52;4.30;;;;;;;5.52;100.00;100488.34;10378049;28;20050;-72
2022/12/30 09:20:18;;;;;;;11.18;5.85;;;;;;;5.55;100.00;100479.94;10377086;28;20034;-71
2022/12/30 09:25:18;;;;;;;14.33;4.03;;;;;;;5.59;100.00;100470.53;10376885;28;20122;-72
2022/12/30 09:30:19;;;;;;;5.50;3.95;;;;;;;5.67;100.00;100458.91;10378065;28;20116;-72
2022/12/30 09:35:22;;;;;;;7.03;4.43;;;;;;;5.68;100.00;100455.19;10378752;28;20092;-72
2022/12/30 09:40:48;;;;;;;6.18;3.75;;;;;;;5.66;100.00;100441.97;10375339;28;20025;-72
2022/12/30 09:46:12;;;;;;;10.10;4.43;;;;;;;5.69;100.00;100424.66;10356712;28;20038;-73
2022/12/30 09:51:16;;;;;;;4.88;3.38;;;;;;;5.70;100.00;100415.56;10376626;28;20030;-72
2022/12/30 09:56:21;;;;;;;8.85;3.47;;;;;;;5.72;100.00;100408.19;10358718;28;20112;-71
2022/12/30 10:01:40;;;;;;;9.02;3.83;;;;;;;5.81;100.00;100383.75;10391293;28;20037;-72
2022/12/30 10:07:02;;;;;;;5.78;3.47;;;;;;;5.79;100.00;100382.28;10375613;28;20128;-71
2022/12/30 10:12:43;;;;;;;13.93;5.40;;;;;;;5.83;100.00;100354.03;10360400;28;20064;-72
2022/12/30 10:18:19;;;;;;;4.75;2.90;;;;;;;5.89;100.00;100347.94;10375716;28;20072;-71
2022/12/30 10:23:34;;;;;;;6.30;2.58;;;;;;;5.96;100.00;100338.16;10348963;28;20038;-72
2022/12/30 10:28:59;;;;;;;3.20;2.30;;;;;;;5.97;100.00;100314.81;10376248;28;20397;-71
2022/12/30 10:34:10;;;;;;;7.97;3.25;;;;;;;6.03;100.00;100312.25;10369037;28;20073;-72
2022/12/30 10:39:25;;;;;;;4.75;3.15;;;;;;;6.11;100.00;100278.22;10358764;28;20084;-71
2022/12/30 10:44:47;;;;;;;7.65;2.83;;;;;;;6.12;100.00;100263.75;10375456;28;20101;-73
2022/12/30 10:50:13;;;;;;;3.22;2.47;;;;;;;6.19;100.00;100233.28;10373617;28;20104;-72
2022/12/30 10:55:25;;;;;;;2.40;1.67;;;;;;;6.27;100.00;100208.97;10374397;28;20105;-71
2022/12/30 11:00:25;;;;;;;6.03;2.25;;;;;;;6.31;100.00;100165.56;10358320;28;20413;-71
2022/12/30 11:11:07;;;;;;;2.95;2.15;;;;;;;6.53;100.00;100135.84;10331506;28;20038;-72
2022/12/30 11:16:11;;;;;;;3.88;1.95;;;;;;;6.60;100.00;100132.41;10375360;28;20048;-72
2022/12/30 11:21:22;;;;;;;7.13;1.88;;;;;;;6.68;100.00;100100.84;10381148;28;20036;-71
2022/12/30 11:26:24;;;;;;;8.23;2.13;;;;;;;6.81;100.00;100092.06;10382141;28;20033;-71
2022/12/30 11:31:36;;;;;;;5.72;3.20;;;;;;;6.84;100.00;100078.22;10381321;28;20030;-71
2022/12/30 11:36:55;;;;;;;8.70;1.88;;;;;;;6.68;100.00;100052.41;10380507;28;20119;-70
2022/12/30 11:54:11;;;;;;;6.80;2.08;;;;;;;6.54;100.00;99967.25;10367070;28;20061;-69
2022/12/30 12:00:02;;;;;;;15.30;4.80;;;;;;;6.62;100.00;99944.75;10380041;28;20065;-69
2022/12/30 12:05:42;;;;;;;6.10;2.55;;;;;;;6.75;100.00;99939.47;10380030;28;20108;-70
2022/12/30 12:10:42;;;;;;;12.77;3.33;;;;;;;6.73;100.00;99936.13;10379638;28;20113;-69
2022/12/30 12:15:47;;;;;;;13.77;2.92;;;;;;;6.82;100.00;99889.19;10362211;28;20046;-69
2022/12/30 12:20:54;;;;;;;9.05;2.85;;;;;;;6.81;100.00;99867.88;10378638;28;20026;-69
2022/12/30 12:26:06;;;;;;;9.82;3.75;;;;;;;6.82;100.00;99835.38;10378914;28;20053;-70
2022/12/30 12:31:25;;;;;;;8.98;3.80;;;;;;;6.92;100.00;99797.34;10379730;28;20025;-70
2022/12/30 12:36:33;;;;;;;5.88;2.17;;;;;;;6.95;100.00;99770.84;10380085;28;20048;-70
2022/12/30 12:41:36;;;;;;;3.15;2.85;;;;;;;6.95;100.00;99753.88;10377881;28;20117;-73
2022/12/30 12:46:52;;;;;;;8.68;2.70;;;;;;;7.02;100.00;99740.44;10379068;28;20030;-69
2022/12/30 12:52:12;;;;;;;14.43;4.03;;;;;;;7.03;100.00;99716.03;10379510;28;20324;-71
2022/12/30 12:57:36;;;;;;;10.40;2.42;;;;;;;7.11;100.00;99698.84;10378048;28;20351;-71
2022/12/30 13:03:14;;;;;;;7.25;3.60;;;;;;;7.25;100.00;99673.59;10362660;28;20072;-71
2022/12/30 13:08:31;;;;;;;7.63;2.85;;;;;;;7.35;100.00;99657.03;10378549;28;20026;-71
2022/12/30 13:13:48;;;;;;;2.53;2.00;;;;;;;7.34;100.00;99628.44;10377025;28;20052;-70
2022/12/30 13:18:51;;;;;;;;;;;;;;;7.28;100.00;99615.81;10362387;28;20184;-74
2022/12/30 13:23:58;;;;;;;10.27;2.38;;;;;;;7.28;100.00;99610.44;10377455;28;19910;-72
2022/12/30 13:29:00;;;;;;;6.30;3.53;;;;;;;7.26;100.00;99596.34;10361331;28;20033;-71
2022/12/30 13:34:15;;;;;;;14.60;2.00;;;;;;;7.27;100.00;99590.75;10361145;28;20030;-70
2022/12/30 13:39:43;;;;;;;7.35;2.45;;;;;;;7.29;100.00;99593.25;10377081;28;20404;-70
2022/12/30 13:44:44;;;;;;;4.07;2.30;;;;;;;7.35;100.00;99565.47;10392945;28;20058;-70
2022/12/30 13:49:44;;;;;;;6.88;2.50;;;;;;;7.39;100.00;99559.44;10374820;28;20469;-71
2022/12/30 13:54:53;;;;;;;8.35;2.33;;;;;;;7.42;100.00;99550.13;10376473;28;20087;-70
2022/12/30 14:00:21;;;;;;;4.20;2.85;;;;;;;7.45;100.00;99552.41;10376719;28;20030;-70
2022/12/30 14:05:37;;;;;;;2.13;2.03;;;;;;;7.52;100.00;99560.47;10374847;28;20418;-71
2022/12/30 14:10:46;;;;;;;2.97;2.72;;;;;;;7.62;100.00;99585.09;10376487;28;20442;-71
2022/12/30 14:15:55;;;;;;;1.85;1.75;;;;;;;7.68;100.00;99555.44;10376925;28;20361;-70
2022/12/30 14:21:00;;;;;;;1.35;1.23;;;;;;;7.75;100.00;99546.50;10374759;28;20079;-71
2022/12/30 14:26:19;;;;;;;4.38;3.47;;;;;;;7.83;100.00;99530.13;10374719;28;20497;-70
2022/12/30 14:31:45;;;;;;;1.05;1.05;;;;;;;7.93;100.00;99538.56;10375106;28;20066;-70
2022/12/30 14:37:19;;;;;;;1.83;1.77;;;;;;;8.04;100.00;99535.22;10375643;28;20030;-71
2022/12/30 14:42:21;;;;;;;2.13;2.03;;;;;;;8.14;100.00;99535.59;10356940;28;20034;-72
2022/12/30 14:47:42;;;;;;;6.15;1.90;;;;;;;8.21;100.00;99534.72;10373414;28;20030;-70
2022/12/30 14:53:02;;;;;;;2.80;2.60;;;;;;;8.29;100.00;99521.78;10391278;28;20037;-70
2022/12/30 14:58:16;;;;;;;2.13;1.33;;;;;;;8.31;100.00;99525.13;10359505;28;20026;-70
2022/12/30 15:03:18;;;;;;;2.35;2.15;;;;;;;8.38;100.00;99536.72;10373030;28;20026;-70
2022/12/30 15:08:21;;;;;;;2.80;2.60;;;;;;;8.45;100.00;99536.66;10357033;28;20026;-71
2022/12/30 15:13:35;;;;;;;3.10;2.72;;;;;;;8.50;100.00;99534.16;10356474;28;20481;-70
2022/12/30 15:18:40;;;;;;;3.40;2.95;;;;;;;8.56;100.00;99519.81;10374898;28;20037;-70
2022/12/30 15:23:41;;;;;;;3.38;3.00;;;;;;;8.66;100.00;99540.09;10374143;28;20038;-70
2022/12/30 15:28:53;;;;;;;3.80;3.47;;;;;;;8.70;100.00;99539.41;10356455;28;20037;-70
2022/12/30 15:34:03;;;;;;;4.13;3.72;;;;;;;8.80;100.00;99537.06;10372818;28;20375;-70
2022/12/30 15:39:04;;;;;;;3.97;3.67;;;;;;;8.91;100.00;99543.63;10389663;28;20037;-70
2022/12/30 15:44:06;;;;;;;6.22;4.97;;;;;;;9.05;100.00;99558.66;10356233;28;20038;-71
2022/12/30 15:49:18;;;;;;;5.50;5.00;;;;;;;9.18;100.00;99557.72;10372627;28;20045;-70
2022/12/30 15:54:22;;;;;;;6.38;5.85;;;;;;;9.30;100.00;99574.03;10374799;28;20085;-70
2022/12/30 15:59:28;;;;;;;3.75;2.75;;;;;;;9.42;100.00;99569.56;10378131;28;20026;-70
2022/12/30 16:04:29;;;;;;;4.70;4.32;;;;;;;9.57;100.00;99568.38;10378790;28;20084;-70
2022/12/30 16:09:41;;;;;;;8.70;4.43;;;;;;;9.67;100.00;99563.31;10381504;28;20038;-70
2022/12/30 16:14:41;;;;;;;4.75;4.30;;;;;;;9.73;100.00;99570.47;10380274;28;20145;-70
2022/12/30 16:19:43;;;;;;;4.80;4.32;;;;;;;9.84;100.00;99591.38;10378962;28;20121;-70
2022/12/30 16:24:46;;;;;;;3.97;3.38;;;;;;;9.91;100.00;99583.19;10379759;28;20049;-70
2022/12/30 16:29:47;;;;;;;5.00;4.60;;;;;;;9.98;100.00;99598.28;10362462;28;20413;-70
2022/12/30 16:34:51;;;;;;;5.55;4.38;;;;;;;10.05;100.00;99605.50;10379523;28;20037;-70
2022/12/30 16:39:52;;;;;;;7.90;3.72;;;;;;;10.12;100.00;99625.19;10362226;28;20441;-70
2022/12/30 16:44:53;;;;;;;2.92;2.72;;;;;;;10.19;100.00;99645.69;10379068;28;20120;-70
2022/12/30 16:49:53;;;;;;;5.55;4.22;;;;;;;10.24;100.00;99636.91;10379010;28;20141;-70
2022/12/30 16:54:54;;;;;;;6.55;5.28;;;;;;;10.28;100.00;99678.72;10378069;28;20057;-70
2022/12/30 16:59:54;;;;;;;4.57;2.92;;;;;;;10.32;100.00;99677.22;10362645;28;20048;-70
2022/12/30 17:04:54;;;;;;;8.27;4.55;;;;;;;10.36;100.00;99691.94;10378306;28;20036;-70
2022/12/30 17:15:14;;;;;;;9.02;3.30;;;;;;;10.45;100.00;99706.84;10376623;28;20050;-71
2022/12/30 17:20:14;;;;;;;9.07;4.10;;;;;;;10.44;100.00;99705.19;10378963;28;20108;-70
2022/12/30 17:25:18;;;;;;;19.23;5.70;;;;;;;10.37;100.00;99730.66;10377422;28;20040;-70
2022/12/30 17:30:19;;;;;;;17.15;5.00;;;;;;;10.34;100.00;99742.78;10379185;28;20046;-70
2022/12/30 17:35:34;;;;;;;13.43;4.10;;;;;;;10.30;100.00;99722.59;10376017;28;20070;-70
2022/12/30 17:40:47;;;;;;;22.67;8.20;;;;;;;10.26;100.00;99740.34;10377393;28;20054;-70
2022/12/30 17:45:49;;;;;;;28.83;7.10;;;;;;;10.24;100.00;99783.84;10376726;28;20038;-70
2022/12/30 17:50:50;;;;;;;10.95;4.63;;;;;;;10.26;100.00;99797.16;10376666;28;20123;-70
2022/12/30 17:56:00;;;;;;;17.45;5.28;;;;;;;10.35;100.00;99809.38;10376926;28;20034;-71
2022/12/30 18:01:01;;;;;;;11.65;4.55;;;;;;;10.42;100.00;99833.66;10375824;28;20037;-70
2022/12/30 18:06:03;;;;;;;10.63;3.20;;;;;;;10.48;100.00;99820.06;10375458;28;20046;-70
2022/12/30 18:11:16;;;;;;;9.68;4.50;;;;;;;10.55;100.00;99838.13;10375326;28;20033;-70
2022/12/30 18:16:22;;;;;;;11.73;3.40;;;;;;;10.58;100.00;99849.31;10377129;28;20486;-70
2022/12/30 18:21:25;;;;;;;27.50;7.53;;;;;;;10.62;100.00;99849.69;10376396;28;20026;-70
2022/12/30 18:26:26;;;;;;;20.98;5.50;;;;;;;10.63;100.00;99854.09;10376205;28;20080;-71
2022/12/30 18:31:27;;;;;;;18.80;4.07;;;;;;;10.67;100.00;99866.13;10377311;28;20041;-70
2022/12/30 18:36:31;;;;;;;14.02;3.03;;;;;;;10.73;100.00;99870.63;10375381;28;20474;-70
2022/12/30 18:41:32;;;;;;;16.90;4.45;;;;;;;10.79;100.00;99879.75;10375125;28;20033;-71
2022/12/30 18:46:33;;;;;;;14.35;4.68;;;;;;;10.87;100.00;99887.56;10374488;28;20026;-70
2022/12/30 18:51:34;;;;;;;15.98;4.78;;;;;;;10.96;100.00;99894.34;10374312;28;20116;-71
2022/12/30 18:56:35;;;;;;;13.43;4.90;;;;;;;11.02;100.00;99881.78;10375363;28;20486;-71
2022/12/30 19:01:38;;;;;;;52.10;35.10;;;;;;;11.07;100.00;99887.34;10374498;28;20042;-71
2022/12/30 19:06:39;;;;;;;18.95;5.25;;;;;;;11.09;100.00;99896.91;10373386;28;20029;-71
2022/12/30 19:11:39;;;;;;;18.67;3.58;;;;;;;11.17;100.00;99898.50;10372701;28;20478;-71
2022/12/30 19:16:49;;;;;;;14.45;4.35;;;;;;;11.12;100.00;99918.16;10356500;28;20058;-71
2022/12/30 19:21:55;;;;;;;14.18;4.10;;;;;;;11.21;100.00;99913.25;10374824;28;20037;-71
2022/12/30 19:32:35;;;;;;;12.50;4.45;;;;;;;11.39;100.00;99956.63;10372410;28;20038;-71
2022/12/30 19:37:36;;;;;;;14.77;3.63;;;;;;;11.41;100.00;99978.91;10381325;28;20390;-71
2022/12/30 19:42:40;;;;;;;8.82;4.22;;;;;;;11.41;100.00;99978.91;10381341;28;20124;-71
2022/12/30 19:47:41;;;;;;;4.78;3.28;;;;;;;11.37;100.00;99996.69;10381359;28;20032;-73
2022/12/30 19:52:42;;;;;;;19.38;6.07;;;;;;;11.34;100.00;99991.72;10379413;28;20033;-73
2022/12/30 19:57:42;;;;;;;15.07;6.15;;;;;;;11.36;100.00;99984.19;10397936;28;20034;-72
2022/12/30 20:02:43;;;;;;;3.10;2.70;;;;;;;11.30;100.00;99989.69;10381087;28;20367;-72
2022/12/30 20:07:44;;;;;;;8.57;4.07;;;;;;;11.15;100.00;99993.56;10395216;28;20033;-72
2022/12/30 20:12:44;;;;;;;4.18;3.55;;;;;;;11.11;100.00;100005.91;10379817;28;20030;-72
2022/12/30 20:17:45;;;;;;;9.18;3.60;;;;;;;11.21;100.00;100016.25;10379741;28;20475;-72
2022/12/30 20:22:48;;;;;;;5.70;2.97;;;;;;;11.33;100.00;100022.59;10378187;28;20371;-71
2022/12/30 20:27:49;;;;;;;11.70;3.67;;;;;;;11.43;100.00;100034.81;10379644;28;20136;-72
2022/12/30 20:32:53;;;;;;;5.80;3.80;;;;;;;11.53;100.00;100030.50;10379541;28;20038;-72
2022/12/30 20:37:54;;;;;;;9.80;2.63;;;;;;;11.53;100.00;100033.22;10379421;28;20482;-72
2022/12/30 20:42:55;;;;;;;7.07;3.60;;;;;;;11.55;100.00;100041.97;10377311;28;20042;-72
2022/12/30 20:47:56;;;;;;;3.90;1.98;;;;;;;11.58;100.00;100043.38;10378005;28;20034;-72
2022/12/30 20:52:56;;;;;;;16.52;4.25;;;;;;;11.61;100.00;100046.50;10379609;28;20131;-72
2022/12/30 20:57:57;;;;;;;4.55;2.72;;;;;;;11.69;100.00;100053.47;10376995;28;20034;-72
2022/12/30 21:02:58;;;;;;;11.65;3.20;;;;;;;11.71;100.00;100073.09;10378826;28;20034;-72
2022/12/30 21:07:59;;;;;;;7.68;2.78;;;;;;;11.75;100.00;100085.13;10377745;28;20037;-71
2022/12/30 21:12:59;;;;;;;11.85;5.05;;;;;;;11.79;100.00;100088.22;10376429;28;20453;-72
2022/12/30 21:18:00;;;;;;;8.95;3.22;;;;;;;11.87;100.00;100101.53;10379380;28;20057;-72
2022/12/30 21:23:01;;;;;;;7.10;3.80;;;;;;;11.77;100.00;100101.16;10361260;28;20038;-72
2022/12/30 21:28:01;;;;;;;9.55;3.38;;;;;;;11.61;100.00;100116.13;10377417;28;20044;-72
2022/12/30 21:33:02;;;;;;;12.55;3.83;;;;;;;11.54;100.00;100128.94;10377793;28;20529;-72
2022/12/30 22:04:45;;;;;;;7.47;3.15;;;;;;;11.64;100.00;100124.66;10376304;28;20045;-70
2022/12/30 22:09:46;;;;;;;17.25;7.75;;;;;;;11.63;100.00;100122.19;10377190;28;20038;-69
2022/12/30 22:14:47;;;;;;;6.88;2.65;;;;;;;11.54;100.00;100127.06;10375248;28;20482;-70
2022/12/30 22:19:48;;;;;;;2.50;2.30;;;;;;;11.51;100.00;100121.25;10375126;28;20033;-70
2022/12/30 22:24:48;;;;;;;9.40;3.28;;;;;;;11.52;100.00;100139.16;10375611;28;20038;-70
2022/12/30 22:29:49;;;;;;;8.52;3.33;;;;;;;11.49;100.00;100147.78;10376148;28;20041;-70
2022/12/30 22:34:50;;;;;;;4.93;3.00;;;;;;;11.47;100.00;100149.88;10374910;28;20180;-70
2022/12/30 22:39:51;;;;;;;3.08;1.60;;;;;;;11.42;100.00;100172.19;10376307;28;20069;-70
2022/12/30 22:44:51;;;;;;;7.13;2.20;;;;;;;11.39;100.00;100169.94;10375718;28;20033;-71
2022/12/30 22:49:52;;;;;;;2.67;1.70;;;;;;;11.38;100.00;100160.97;10375089;28;20535;-70
2022/12/30 22:54:52;;;;;;;8.75;2.47;;;;;;;11.38;100.00;100171.81;10373780;28;20046;-71
2022/12/30 22:59:53;;;;;;;3.45;2.17;;;;;;;11.36;100.00;100164.97;10373732;28;20041;-70
2022/12/30 23:04:54;;;;;;;3.30;1.42;;;;;;;11.38;100.00;100166.41;10357174;28;20040;-70
2022/12/30 23:09:54;;;;;;;2.75;1.83;;;;;;;11.41;100.00;100171.38;10380006;28;20037;-70
2022/12/30 23:20:14;;;;;;;6.65;2.58;;;;;;;11.44;100.00;100178.25;10381614;28;20030;-71
2022/12/30 23:25:14;;;;;;;1.80;1.70;;;;;;;11.46;100.00;100183.47;10380480;28;20038;-71
2022/12/30 23:30:15;;;;;;;7.95;2.40;;;;;;;11.51;100.00;100186.31;10364574;28;20029;-71
2022/12/30 23:35:17;;;;;;;5.88;2.13;;;;;;;11.52;100.00;100190.69;10366145;28;20120;-71
2022/12/30 23:40:18;;;;;;;9.18;2.50;;;;;;;11.50;100.00;100184.66;10381784;28;20033;-71
2022/12/30 23:45:18;;;;;;;3.53;2.47;;;;;;;11.49;100.00;100183.84;10379772;28;20033;-71
2022/12/30 23:50:19;;;;;;;9.80;2.17;;;;;;;11.53;100.00;100182.34;10379906;28;20041;-71
2022/12/30 23:55:19;;;;;;;11.88;3.25;;;;;;;11.51;100.00;100191.75;10382136;28;20045;-71
